sensor_id;sensor_type;location;lat;lon;timestamp;pressure;altitude;pressure_sealevel;temperature;humidity
62779;BME280;48821;48.796;2.396;2024-03-02T06:54:33;99615.34;;;8.27;71.76
62779;BME280;48821;48.796;2.396;2024-03-02T06:55:47;99618.78;;;8.29;71.87
62779;BME280;48821;48.796;2.396;2024-03-02T06:57:00;99610.97;;;8.28;72.05
62779;BME280;48821;48.796;2.396;2024-03-02T06:58:14;99615.19;;;8.32;71.95
62779;BME280;48821;48.796;2.396;2024-03-02T06:59:30;99610.72;;;8.34;71.52
62779;BME280;48821;48.796;2.396;2024-03-02T07:00:44;99620.22;;;8.37;72.03
62779;BME280;48821;48.796;2.396;2024-03-02T07:01:57;99614.06;;;8.38;71.84
62779;BME280;48821;48.796;2.396;2024-03-02T07:03:10;99617.44;;;8.40;72.04
62779;BME280;48821;48.796;2.396;2024-03-02T07:04:23;99621.72;;;8.42;72.30
62779;BME280;48821;48.796;2.396;2024-03-02T07:05:36;99616.44;;;8.44;71.79
62779;BME280;48821;48.796;2.396;2024-03-02T07:06:50;99618.88;;;8.47;72.08
62779;BME280;48821;48.796;2.396;2024-03-02T07:08:04;99618.00;;;8.48;72.18
62779;BME280;48821;48.796;2.396;2024-03-02T07:09:18;99623.09;;;8.51;71.47
62779;BME280;48821;48.796;2.396;2024-03-02T07:10:35;99614.19;;;8.55;72.15
62779;BME280;48821;48.796;2.396;2024-03-02T07:11:49;99614.97;;;8.58;71.93
62779;BME280;48821;48.796;2.396;2024-03-02T07:13:02;99612.34;;;8.58;72.04
62779;BME280;48821;48.796;2.396;2024-03-02T07:14:15;99606.09;;;8.62;71.90
62779;BME280;48821;48.796;2.396;2024-03-02T07:15:29;99608.72;;;8.62;72.04
62779;BME280;48821;48.796;2.396;2024-03-02T07:16:58;99603.34;;;8.65;71.99
62779;BME280;48821;48.796;2.396;2024-03-02T07:18:12;99604.00;;;8.70;72.13
62779;BME280;48821;48.796;2.396;2024-03-02T07:19:25;99600.41;;;8.73;71.92
62779;BME280;48821;48.796;2.396;2024-03-02T07:20:38;99609.91;;;8.75;71.81
62779;BME280;48821;48.796;2.396;2024-03-02T07:21:51;99607.97;;;8.79;71.77
62779;BME280;48821;48.796;2.396;2024-03-02T07:23:05;99605.34;;;8.79;71.63
62779;BME280;48821;48.796;2.396;2024-03-02T07:24:19;99607.00;;;8.82;71.88
62779;BME280;48821;48.796;2.396;2024-03-02T07:25:32;99606.09;;;8.83;71.78
62779;BME280;48821;48.796;2.396;2024-03-02T07:26:45;99596.34;;;8.86;71.82
62779;BME280;48821;48.796;2.396;2024-03-02T07:27:58;99600.56;;;8.89;72.12
62779;BME280;48821;48.796;2.396;2024-03-02T07:29:11;99603.91;;;8.93;72.03
62779;BME280;48821;48.796;2.396;2024-03-02T07:30:25;99602.06;;;8.95;71.80
62779;BME280;48821;48.796;2.396;2024-03-02T07:31:38;99602.16;;;8.93;71.79
62779;BME280;48821;48.796;2.396;2024-03-02T07:32:51;99595.28;;;8.91;71.79
62779;BME280;48821;48.796;2.396;2024-03-02T07:34:04;99606.31;;;8.97;71.87
62779;BME280;48821;48.796;2.396;2024-03-02T07:35:17;99601.72;;;9.03;71.73
62779;BME280;48821;48.796;2.396;2024-03-02T07:36:31;99606.75;;;9.07;71.97
62779;BME280;48821;48.796;2.396;2024-03-02T07:37:44;99608.41;;;9.10;72.04
62779;BME280;48821;48.796;2.396;2024-03-02T07:38:57;99604.88;;;9.11;71.67
62779;BME280;48821;48.796;2.396;2024-03-02T07:40:11;99601.31;;;9.12;72.06
62779;BME280;48821;48.796;2.396;2024-03-02T07:41:24;99599.34;;;9.17;72.04
62779;BME280;48821;48.796;2.396;2024-03-02T07:42:41;99601.19;;;9.15;71.85
62779;BME280;48821;48.796;2.396;2024-03-02T07:43:54;99597.56;;;9.18;71.42
62779;BME280;48821;48.796;2.396;2024-03-02T07:45:08;99603.50;;;9.21;71.38
62779;BME280;48821;48.796;2.396;2024-03-02T07:46:21;99599.91;;;9.24;71.63
62779;BME280;48821;48.796;2.396;2024-03-02T07:47:35;99599.84;;;9.26;71.59
62779;BME280;48821;48.796;2.396;2024-03-02T07:48:48;99596.22;;;9.28;71.67
62779;BME280;48821;48.796;2.396;2024-03-02T07:50:02;99600.53;;;9.29;71.61
62779;BME280;48821;48.796;2.396;2024-03-02T07:51:15;99601.25;;;9.33;71.68
62779;BME280;48821;48.796;2.396;2024-03-02T07:52:30;99590.00;;;9.31;71.58
62779;BME280;48821;48.796;2.396;2024-03-02T07:53:43;99598.56;;;9.34;71.37
62779;BME280;48821;48.796;2.396;2024-03-02T07:54:56;99596.66;;;9.38;71.52
62779;BME280;48821;48.796;2.396;2024-03-02T07:56:09;99599.13;;;9.41;71.63
62779;BME280;48821;48.796;2.396;2024-03-02T07:57:23;99598.91;;;9.46;71.62
62779;BME280;48821;48.796;2.396;2024-03-02T07:58:36;99603.16;;;9.49;71.39
62779;BME280;48821;48.796;2.396;2024-03-02T07:59:49;99603.16;;;9.49;71.21
62779;BME280;48821;48.796;2.396;2024-03-02T08:01:03;99606.41;;;9.54;71.35
62779;BME280;48821;48.796;2.396;2024-03-02T08:02:16;99605.41;;;9.56;71.17
62779;BME280;48821;48.796;2.396;2024-03-02T08:03:30;99589.97;;;9.50;71.17
62779;BME280;48821;48.796;2.396;2024-03-02T08:04:45;99607.81;;;9.61;71.24
62779;BME280;48821;48.796;2.396;2024-03-02T08:05:59;99610.31;;;9.64;71.23
62779;BME280;48821;48.796;2.396;2024-03-02T08:07:12;99616.34;;;9.66;71.30
62779;BME280;48821;48.796;2.396;2024-03-02T08:08:25;99606.69;;;9.67;71.01
62779;BME280;48821;48.796;2.396;2024-03-02T08:09:38;99611.81;;;9.70;71.03
62779;BME280;48821;48.796;2.396;2024-03-02T08:10:51;99615.13;;;9.74;71.14
62779;BME280;48821;48.796;2.396;2024-03-02T08:12:05;99616.75;;;9.76;71.42
62779;BME280;48821;48.796;2.396;2024-03-02T08:13:18;99613.22;;;9.77;71.26
62779;BME280;48821;48.796;2.396;2024-03-02T08:14:31;99614.91;;;9.78;71.25
62779;BME280;48821;48.796;2.396;2024-03-02T08:15:44;99615.63;;;9.82;71.32
62779;BME280;48821;48.796;2.396;2024-03-02T08:16:57;99605.97;;;9.83;71.27
62779;BME280;48821;48.796;2.396;2024-03-02T08:18:11;99605.88;;;9.84;71.39
62779;BME280;48821;48.796;2.396;2024-03-02T08:19:24;99599.56;;;9.88;71.12
62779;BME280;48821;48.796;2.396;2024-03-02T08:20:37;99596.88;;;9.90;71.26
62779;BME280;48821;48.796;2.396;2024-03-02T08:21:50;99598.56;;;9.91;71.09
62779;BME280;48821;48.796;2.396;2024-03-02T08:23:04;99607.19;;;9.93;71.33
62779;BME280;48821;48.796;2.396;2024-03-02T08:24:18;99601.81;;;9.96;71.22
62779;BME280;48821;48.796;2.396;2024-03-02T08:25:31;99600.03;;;9.97;71.21
62779;BME280;48821;48.796;2.396;2024-03-02T08:26:44;99607.69;;;10.01;71.05
62779;BME280;48821;48.796;2.396;2024-03-02T08:27:57;99605.06;;;10.01;70.95
62779;BME280;48821;48.796;2.396;2024-03-02T08:29:11;99614.56;;;10.04;71.33
62779;BME280;48821;48.796;2.396;2024-03-02T08:30:25;99604.22;;;10.01;70.76
62779;BME280;48821;48.796;2.396;2024-03-02T08:31:38;99600.81;;;9.99;70.93
62779;BME280;48821;48.796;2.396;2024-03-02T08:32:51;99601.44;;;10.04;71.10
62779;BME280;48821;48.796;2.396;2024-03-02T08:34:04;99597.06;;;10.05;71.15
62779;BME280;48821;48.796;2.396;2024-03-02T08:35:17;99590.09;;;10.04;71.21
62779;BME280;48821;48.796;2.396;2024-03-02T08:36:31;99601.28;;;10.07;71.17
62779;BME280;48821;48.796;2.396;2024-03-02T08:37:44;99603.84;;;10.09;70.91
62779;BME280;48821;48.796;2.396;2024-03-02T08:38:57;99594.34;;;10.06;70.85
62779;BME280;48821;48.796;2.396;2024-03-02T08:40:10;99600.50;;;10.05;70.93
62779;BME280;48821;48.796;2.396;2024-03-02T08:41:24;99615.25;;;10.08;70.66
62779;BME280;48821;48.796;2.396;2024-03-02T08:42:37;99606.59;;;10.06;70.77
62779;BME280;48821;48.796;2.396;2024-03-02T08:43:51;99604.06;;;10.04;70.63
62779;BME280;48821;48.796;2.396;2024-03-02T08:45:04;99602.28;;;10.05;70.78
62779;BME280;48821;48.796;2.396;2024-03-02T08:46:17;99604.91;;;10.05;70.43
62779;BME280;48821;48.796;2.396;2024-03-02T08:47:31;99607.59;;;10.03;70.43
62779;BME280;48821;48.796;2.396;2024-03-02T08:48:44;99602.34;;;10.03;70.64
62779;BME280;48821;48.796;2.396;2024-03-02T08:49:57;99595.41;;;10.02;70.71
62779;BME280;48821;48.796;2.396;2024-03-02T08:51:10;99595.41;;;10.02;70.64
62779;BME280;48821;48.796;2.396;2024-03-02T08:52:23;99601.50;;;10.02;70.68
62779;BME280;48821;48.796;2.396;2024-03-02T08:53:37;99593.72;;;10.01;70.80
62779;BME280;48821;48.796;2.396;2024-03-02T08:54:50;99594.47;;;10.03;70.60
62779;BME280;48821;48.796;2.396;2024-03-02T08:56:04;99601.50;;;10.02;70.65
62779;BME280;48821;48.796;2.396;2024-03-02T08:57:18;99606.59;;;10.06;70.75
62779;BME280;48821;48.796;2.396;2024-03-02T08:58:32;99590.94;;;10.04;70.85
62779;BME280;48821;48.796;2.396;2024-03-02T08:59:45;99600.50;;;10.05;70.81
62779;BME280;48821;48.796;2.396;2024-03-02T09:00:58;99596.97;;;10.06;70.77
62779;BME280;48821;48.796;2.396;2024-03-02T09:02:11;99590.94;;;10.04;70.91
62779;BME280;48821;48.796;2.396;2024-03-02T09:03:25;99586.47;;;10.06;70.96
62779;BME280;48821;48.796;2.396;2024-03-02T09:04:38;99587.69;;;9.99;70.76
62779;BME280;48821;48.796;2.396;2024-03-02T09:05:51;99602.13;;;10.08;70.79
62779;BME280;48821;48.796;2.396;2024-03-02T09:07:04;99591.72;;;10.06;71.03
62779;BME280;48821;48.796;2.396;2024-03-02T09:08:17;99589.84;;;10.08;70.99
62779;BME280;48821;48.796;2.396;2024-03-02T09:09:30;99585.53;;;10.07;70.97
62779;BME280;48821;48.796;2.396;2024-03-02T09:10:44;99595.81;;;10.12;71.05
62779;BME280;48821;48.796;2.396;2024-03-02T09:11:58;99599.28;;;10.12;70.94
62779;BME280;48821;48.796;2.396;2024-03-02T09:13:11;99590.47;;;10.13;71.06
62779;BME280;48821;48.796;2.396;2024-03-02T09:14:24;99597.44;;;10.15;71.21
62779;BME280;48821;48.796;2.396;2024-03-02T09:15:37;99589.56;;;10.15;71.35
62779;BME280;48821;48.796;2.396;2024-03-02T09:16:52;99573.00;;;10.12;71.25
62779;BME280;48821;48.796;2.396;2024-03-02T09:18:05;99583.47;;;10.14;71.39
62779;BME280;48821;48.796;2.396;2024-03-02T09:19:19;99579.75;;;10.18;71.46
62779;BME280;48821;48.796;2.396;2024-03-02T09:20:32;99572.81;;;10.17;71.46
62779;BME280;48821;48.796;2.396;2024-03-02T09:21:46;99581.38;;;10.21;71.35
62779;BME280;48821;48.796;2.396;2024-03-02T09:22:59;99561.69;;;10.12;70.98
62779;BME280;48821;48.796;2.396;2024-03-02T09:24:12;99572.72;;;10.19;71.52
62779;BME280;48821;48.796;2.396;2024-03-02T09:25:25;99579.59;;;10.21;71.59
62779;BME280;48821;48.796;2.396;2024-03-02T09:26:38;99583.06;;;10.22;71.34
62779;BME280;48821;48.796;2.396;2024-03-02T09:27:52;99587.38;;;10.23;71.59
62779;BME280;48821;48.796;2.396;2024-03-02T09:29:05;99579.59;;;10.21;71.42
62779;BME280;48821;48.796;2.396;2024-03-02T09:30:18;99583.84;;;10.24;71.53
62779;BME280;48821;48.796;2.396;2024-03-02T09:31:29;99582.00;;;10.26;71.63
62779;BME280;48821;48.796;2.396;2024-03-02T09:32:41;99580.38;;;10.23;71.54
62779;BME280;48821;48.796;2.396;2024-03-02T09:33:54;99574.97;;;10.27;71.58
62779;BME280;48821;48.796;2.396;2024-03-02T09:35:07;99574.97;;;10.27;71.78
62779;BME280;48821;48.796;2.396;2024-03-02T09:36:22;99572.34;;;10.27;71.77
62779;BME280;48821;48.796;2.396;2024-03-02T09:37:35;99570.56;;;10.27;71.63
62779;BME280;48821;48.796;2.396;2024-03-02T09:38:48;99566.16;;;10.28;71.89
62779;BME280;48821;48.796;2.396;2024-03-02T09:40:02;99563.47;;;10.29;71.88
62779;BME280;48821;48.796;2.396;2024-03-02T09:41:15;99563.53;;;10.28;71.72
62779;BME280;48821;48.796;2.396;2024-03-02T09:42:29;99568.63;;;10.31;71.77
62779;BME280;48821;48.796;2.396;2024-03-02T09:43:42;99564.28;;;10.30;72.11
62779;BME280;48821;48.796;2.396;2024-03-02T09:44:56;99571.16;;;10.32;71.96
62779;BME280;48821;48.796;2.396;2024-03-02T09:46:10;99564.06;;;10.34;72.24
62779;BME280;48821;48.796;2.396;2024-03-02T09:47:24;99560.50;;;10.35;72.21
62779;BME280;48821;48.796;2.396;2024-03-02T09:48:37;99558.72;;;10.36;71.96
62779;BME280;48821;48.796;2.396;2024-03-02T09:49:51;99566.47;;;10.39;72.22
62779;BME280;48821;48.796;2.396;2024-03-02T09:51:04;99561.13;;;10.41;72.21
62779;BME280;48821;48.796;2.396;2024-03-02T09:52:18;99551.38;;;10.43;72.45
62779;BME280;48821;48.796;2.396;2024-03-02T09:53:33;99554.78;;;10.45;72.27
62779;BME280;48821;48.796;2.396;2024-03-02T09:54:47;99556.34;;;10.49;72.24
62779;BME280;48821;48.796;2.396;2024-03-02T09:56:01;99550.13;;;10.50;72.38
62779;BME280;48821;48.796;2.396;2024-03-02T09:57:12;99543.13;;;10.51;72.23
62779;BME280;48821;48.796;2.396;2024-03-02T09:58:23;99542.91;;;10.55;72.31
62779;BME280;48821;48.796;2.396;2024-03-02T09:59:36;99537.56;;;10.57;72.37
62779;BME280;48821;48.796;2.396;2024-03-02T10:00:49;99538.25;;;10.61;72.41
62779;BME280;48821;48.796;2.396;2024-03-02T10:02:03;99535.53;;;10.62;72.23
62779;BME280;48821;48.796;2.396;2024-03-02T10:03:18;99537.91;;;10.67;72.55
62779;BME280;48821;48.796;2.396;2024-03-02T10:04:31;99534.38;;;10.68;72.39
62779;BME280;48821;48.796;2.396;2024-03-02T10:05:45;99521.06;;;10.71;72.62
62779;BME280;48821;48.796;2.396;2024-03-02T10:07:17;99528.63;;;10.77;72.78
62779;BME280;48821;48.796;2.396;2024-03-02T10:08:42;99526.59;;;10.83;72.68
62779;BME280;48821;48.796;2.396;2024-03-02T10:09:56;99531.69;;;10.86;72.79
62779;BME280;48821;48.796;2.396;2024-03-02T10:11:10;99527.97;;;10.90;72.87
62779;BME280;48821;48.796;2.396;2024-03-02T10:12:23;99529.47;;;10.94;72.75
62779;BME280;48821;48.796;2.396;2024-03-02T10:13:37;99530.19;;;10.98;72.54
62779;BME280;48821;48.796;2.396;2024-03-02T10:15:03;99518.56;;;11.02;72.56
62779;BME280;48821;48.796;2.396;2024-03-02T10:16:17;99508.13;;;11.00;72.72
62779;BME280;48821;48.796;2.396;2024-03-02T10:17:31;99508.75;;;11.06;72.42
62779;BME280;48821;48.796;2.396;2024-03-02T10:18:44;99519.75;;;11.12;72.36
62779;BME280;48821;48.796;2.396;2024-03-02T10:19:58;99512.78;;;11.11;72.39
62779;BME280;48821;48.796;2.396;2024-03-02T10:21:14;99517.78;;;11.16;72.29
62779;BME280;48821;48.796;2.396;2024-03-02T10:22:28;99521.22;;;11.18;72.39
62779;BME280;48821;48.796;2.396;2024-03-02T10:23:41;99511.78;;;11.14;72.24
62779;BME280;48821;48.796;2.396;2024-03-02T10:24:54;99518.47;;;11.20;72.15
62779;BME280;48821;48.796;2.396;2024-03-02T10:26:16;99519.25;;;11.22;72.14
62779;BME280;48821;48.796;2.396;2024-03-02T10:27:29;99515.75;;;11.21;72.06
62779;BME280;48821;48.796;2.396;2024-03-02T10:28:47;99514.75;;;11.24;72.07
62779;BME280;48821;48.796;2.396;2024-03-02T10:29:57;99516.53;;;11.23;71.87
62779;BME280;48821;48.796;2.396;2024-03-02T10:31:08;99511.28;;;11.23;71.73
62779;BME280;48821;48.796;2.396;2024-03-02T10:32:22;99512.03;;;11.25;72.15
62779;BME280;48821;48.796;2.396;2024-03-02T10:33:35;99507.53;;;11.28;71.91
62779;BME280;48821;48.796;2.396;2024-03-02T10:34:46;99510.16;;;11.28;72.05
62779;BME280;48821;48.796;2.396;2024-03-02T10:36:00;99514.47;;;11.29;71.93
62779;BME280;48821;48.796;2.396;2024-03-02T10:37:11;99512.72;;;11.29;71.85
62779;BME280;48821;48.796;2.396;2024-03-02T10:38:25;99507.53;;;11.28;72.01
62779;BME280;48821;48.796;2.396;2024-03-02T10:39:39;99507.59;;;11.26;71.81
62779;BME280;48821;48.796;2.396;2024-03-02T10:40:52;99505.06;;;11.24;71.71
62779;BME280;48821;48.796;2.396;2024-03-02T10:42:06;99503.19;;;11.27;72.00
62779;BME280;48821;48.796;2.396;2024-03-02T10:43:20;99510.16;;;11.28;71.85
62779;BME280;48821;48.796;2.396;2024-03-02T10:44:30;99504.06;;;11.27;71.98
62779;BME280;48821;48.796;2.396;2024-03-02T10:45:47;99501.53;;;11.25;71.85
62779;BME280;48821;48.796;2.396;2024-03-02T10:47:04;99496.31;;;11.24;71.89
62779;BME280;48821;48.796;2.396;2024-03-02T10:48:18;99504.16;;;11.25;71.85
62779;BME280;48821;48.796;2.396;2024-03-02T10:49:32;99509.41;;;11.25;72.34
62779;BME280;48821;48.796;2.396;2024-03-02T10:50:45;99506.78;;;11.25;71.77
62779;BME280;48821;48.796;2.396;2024-03-02T10:51:59;99506.78;;;11.25;71.55
62779;BME280;48821;48.796;2.396;2024-03-02T10:53:12;99499.81;;;11.24;71.66
62779;BME280;48821;48.796;2.396;2024-03-02T10:54:26;99506.84;;;11.24;71.91
62779;BME280;48821;48.796;2.396;2024-03-02T10:55:39;99506.78;;;11.25;71.87
62779;BME280;48821;48.796;2.396;2024-03-02T10:56:53;99512.97;;;11.24;71.85
62779;BME280;48821;48.796;2.396;2024-03-02T10:58:12;99503.56;;;11.20;71.94
62779;BME280;48821;48.796;2.396;2024-03-02T10:59:35;99502.44;;;11.24;71.67
62779;BME280;48821;48.796;2.396;2024-03-02T11:00:49;99509.56;;;11.22;71.75
62779;BME280;48821;48.796;2.396;2024-03-02T11:02:04;99528.84;;;11.23;72.09
62779;BME280;48821;48.796;2.396;2024-03-02T11:03:20;99533.25;;;11.22;72.11
62779;BME280;48821;48.796;2.396;2024-03-02T11:04:34;99522.72;;;11.22;72.03
62779;BME280;48821;48.796;2.396;2024-03-02T11:05:48;99530.63;;;11.22;71.81
62779;BME280;48821;48.796;2.396;2024-03-02T11:07:07;99523.75;;;11.20;71.39
62779;BME280;48821;48.796;2.396;2024-03-02T11:08:21;99518.66;;;11.17;71.67
62779;BME280;48821;48.796;2.396;2024-03-02T11:09:41;99518.84;;;11.13;71.60
62779;BME280;48821;48.796;2.396;2024-03-02T11:10:58;99520.88;;;11.08;70.99
62779;BME280;48821;48.796;2.396;2024-03-02T11:12:31;99514.91;;;11.05;71.41
62779;BME280;48821;48.796;2.396;2024-03-02T11:13:50;99520.34;;;11.01;71.19
62779;BME280;48821;48.796;2.396;2024-03-02T11:15:06;99515.25;;;10.98;71.58
62779;BME280;48821;48.796;2.396;2024-03-02T11:16:27;99511.78;;;10.98;71.41
62779;BME280;48821;48.796;2.396;2024-03-02T11:17:46;99507.44;;;10.97;71.71
62779;BME280;48821;48.796;2.396;2024-03-02T11:19:03;99509.16;;;10.98;71.70
62779;BME280;48821;48.796;2.396;2024-03-02T11:20:17;99510.00;;;10.98;71.62
62779;BME280;48821;48.796;2.396;2024-03-02T11:21:33;99504.81;;;10.97;71.33
62779;BME280;48821;48.796;2.396;2024-03-02T11:22:47;99504.00;;;10.96;71.73
62779;BME280;48821;48.796;2.396;2024-03-02T11:25:36;99503.03;;;10.97;72.07
62779;BME280;48821;48.796;2.396;2024-03-02T11:26:51;99501.94;;;11.01;71.90
62779;BME280;48821;48.796;2.396;2024-03-02T11:28:05;99502.72;;;11.03;72.07
62779;BME280;48821;48.796;2.396;2024-03-02T11:30:54;99500.66;;;11.09;72.16
62779;BME280;48821;48.796;2.396;2024-03-02T11:32:15;99498.81;;;11.11;71.99
62779;BME280;48821;48.796;2.396;2024-03-02T11:33:28;99496.09;;;11.12;71.79
62779;BME280;48821;48.796;2.396;2024-03-02T11:34:46;99494.31;;;11.13;72.12
62779;BME280;48821;48.796;2.396;2024-03-02T11:36:00;99496.75;;;11.16;71.99
62779;BME280;48821;48.796;2.396;2024-03-02T11:37:14;99487.19;;;11.15;71.87
62779;BME280;48821;48.796;2.396;2024-03-02T11:38:28;99485.41;;;11.16;72.01
62779;BME280;48821;48.796;2.396;2024-03-02T11:39:48;99492.44;;;11.15;72.15
62779;BME280;48821;48.796;2.396;2024-03-02T11:41:03;99490.56;;;11.17;72.27
62779;BME280;48821;48.796;2.396;2024-03-02T11:42:20;99488.03;;;11.16;72.32
62779;BME280;48821;48.796;2.396;2024-03-02T11:43:33;99492.28;;;11.18;72.17
62779;BME280;48821;48.796;2.396;2024-03-02T11:44:49;99483.69;;;11.14;72.28
62779;BME280;48821;48.796;2.396;2024-03-02T11:46:04;99486.06;;;11.19;72.09
62779;BME280;48821;48.796;2.396;2024-03-02T11:47:20;99482.53;;;11.20;72.34
62779;BME280;48821;48.796;2.396;2024-03-02T11:48:35;99485.16;;;11.20;72.04
62779;BME280;48821;48.796;2.396;2024-03-02T11:49:50;99480.81;;;11.19;72.19
62779;BME280;48821;48.796;2.396;2024-03-02T11:51:04;99473.78;;;11.20;72.22
62779;BME280;48821;48.796;2.396;2024-03-02T11:52:18;99472.06;;;11.19;72.05
62779;BME280;48821;48.796;2.396;2024-03-02T11:53:31;99465.19;;;11.16;72.18
62779;BME280;48821;48.796;2.396;2024-03-02T11:54:47;99468.69;;;11.17;71.98
62779;BME280;48821;48.796;2.396;2024-03-02T11:56:01;99479.97;;;11.19;72.20
62779;BME280;48821;48.796;2.396;2024-03-02T11:57:16;99478.34;;;11.16;72.16
62779;BME280;48821;48.796;2.396;2024-03-02T11:58:31;99486.22;;;11.16;71.67
62779;BME280;48821;48.796;2.396;2024-03-02T11:59:45;99475.06;;;11.12;71.68
62779;BME280;48821;48.796;2.396;2024-03-02T12:00:58;99479.63;;;11.09;71.63
62779;BME280;48821;48.796;2.396;2024-03-02T12:02:16;99480.41;;;11.11;71.90
62779;BME280;48821;48.796;2.396;2024-03-02T12:03:32;99479.56;;;11.10;72.06
62779;BME280;48821;48.796;2.396;2024-03-02T12:04:47;99474.34;;;11.09;71.85
62779;BME280;48821;48.796;2.396;2024-03-02T12:06:02;99467.59;;;11.05;71.80
62779;BME280;48821;48.796;2.396;2024-03-02T12:07:19;99472.69;;;11.08;71.67
62779;BME280;48821;48.796;2.396;2024-03-02T12:08:34;99478.84;;;11.07;71.70
62779;BME280;48821;48.796;2.396;2024-03-02T12:09:48;99474.56;;;11.06;71.49
62779;BME280;48821;48.796;2.396;2024-03-02T12:11:02;99476.44;;;11.03;71.86
62779;BME280;48821;48.796;2.396;2024-03-02T12:12:15;99476.50;;;11.02;71.37
62779;BME280;48821;48.796;2.396;2024-03-02T12:13:31;99476.59;;;11.00;71.37
62779;BME280;48821;48.796;2.396;2024-03-02T12:14:52;99472.19;;;11.01;71.75
62779;BME280;48821;48.796;2.396;2024-03-02T12:16:08;99473.19;;;10.98;71.69
62779;BME280;48821;48.796;2.396;2024-03-02T12:17:22;99466.31;;;10.96;71.47
62779;BME280;48821;48.796;2.396;2024-03-02T12:18:36;99477.84;;;10.93;71.51
62779;BME280;48821;48.796;2.396;2024-03-02T12:19:49;99475.28;;;10.91;71.20
62779;BME280;48821;48.796;2.396;2024-03-02T12:21:02;99467.75;;;10.85;71.61
62779;BME280;48821;48.796;2.396;2024-03-02T12:22:17;99473.88;;;10.86;71.70
62779;BME280;48821;48.796;2.396;2024-03-02T12:23:30;99471.25;;;10.86;72.05
62779;BME280;48821;48.796;2.396;2024-03-02T12:24:44;99469.38;;;10.88;72.11
62779;BME280;48821;48.796;2.396;2024-03-02T12:25:58;99468.34;;;10.90;71.75
62779;BME280;48821;48.796;2.396;2024-03-02T12:27:12;99463.19;;;10.89;71.63
62779;BME280;48821;48.796;2.396;2024-03-02T12:28:25;99460.63;;;10.87;71.88
62779;BME280;48821;48.796;2.396;2024-03-02T12:29:39;99457.94;;;10.89;72.13
62779;BME280;48821;48.796;2.396;2024-03-02T12:30:52;99462.00;;;10.95;72.24
62779;BME280;48821;48.796;2.396;2024-03-02T12:32:05;99461.13;;;10.94;72.18
62779;BME280;48821;48.796;2.396;2024-03-02T12:33:19;99462.59;;;11.00;72.15
62779;BME280;48821;48.796;2.396;2024-03-02T12:34:32;99454.59;;;11.01;71.92
62779;BME280;48821;48.796;2.396;2024-03-02T12:35:46;99457.16;;;11.03;72.26
62779;BME280;48821;48.796;2.396;2024-03-02T12:36:59;99451.66;;;11.08;72.14
62779;BME280;48821;48.796;2.396;2024-03-02T12:38:14;99456.75;;;11.11;72.14
62779;BME280;48821;48.796;2.396;2024-03-02T12:39:27;99456.53;;;11.14;72.08
62779;BME280;48821;48.796;2.396;2024-03-02T12:40:40;99459.00;;;11.17;72.12
62779;BME280;48821;48.796;2.396;2024-03-02T12:41:53;99450.19;;;11.18;72.39
62779;BME280;48821;48.796;2.396;2024-03-02T12:43:08;99438.91;;;11.16;72.50
62779;BME280;48821;48.796;2.396;2024-03-02T12:44:21;99450.78;;;11.23;72.46
62779;BME280;48821;48.796;2.396;2024-03-02T12:45:35;99443.56;;;11.27;72.41
62779;BME280;48821;48.796;2.396;2024-03-02T12:46:48;99453.81;;;11.32;72.15
62779;BME280;48821;48.796;2.396;2024-03-02T12:48:02;99441.53;;;11.32;72.27
62779;BME280;48821;48.796;2.396;2024-03-02T12:49:16;99451.09;;;11.33;72.16
62779;BME280;48821;48.796;2.396;2024-03-02T12:50:29;99451.78;;;11.37;72.17
62779;BME280;48821;48.796;2.396;2024-03-02T12:51:43;99452.53;;;11.39;71.93
62779;BME280;48821;48.796;2.396;2024-03-02T12:52:56;99455.16;;;11.39;71.68
62779;BME280;48821;48.796;2.396;2024-03-02T12:54:10;99442.00;;;11.39;71.81
62779;BME280;48821;48.796;2.396;2024-03-02T12:55:24;99441.09;;;11.40;71.45
62779;BME280;48821;48.796;2.396;2024-03-02T12:56:37;99444.47;;;11.42;71.60
62779;BME280;48821;48.796;2.396;2024-03-02T12:57:51;99434.88;;;11.41;71.45
62779;BME280;48821;48.796;2.396;2024-03-02T12:59:05;99445.31;;;11.43;71.75
62779;BME280;48821;48.796;2.396;2024-03-02T13:00:19;99443.44;;;11.45;71.42
62779;BME280;48821;48.796;2.396;2024-03-02T13:01:33;99443.34;;;11.46;71.84
62779;BME280;48821;48.796;2.396;2024-03-02T13:02:46;99440.81;;;11.45;71.72
62779;BME280;48821;48.796;2.396;2024-03-02T13:04:00;99436.47;;;11.44;71.49
62779;BME280;48821;48.796;2.396;2024-03-02T13:05:13;99445.81;;;11.50;71.67
62779;BME280;48821;48.796;2.396;2024-03-02T13:06:27;99438.84;;;11.48;71.55
62779;BME280;48821;48.796;2.396;2024-03-02T13:07:41;99442.31;;;11.49;71.75
62779;BME280;48821;48.796;2.396;2024-03-02T13:08:54;99446.56;;;11.52;71.31
62779;BME280;48821;48.796;2.396;2024-03-02T13:10:07;99444.03;;;11.50;71.34
62779;BME280;48821;48.796;2.396;2024-03-02T13:11:22;99445.66;;;11.53;71.69
62779;BME280;48821;48.796;2.396;2024-03-02T13:12:35;99445.53;;;11.54;71.55
62779;BME280;48821;48.796;2.396;2024-03-02T13:13:48;99442.91;;;11.54;71.45
62779;BME280;48821;48.796;2.396;2024-03-02T13:15:03;99439.25;;;11.57;71.98
62779;BME280;48821;48.796;2.396;2024-03-02T13:16:18;99443.59;;;11.58;71.41
62779;BME280;48821;48.796;2.396;2024-03-02T13:17:30;99449.78;;;11.57;71.64
62779;BME280;48821;48.796;2.396;2024-03-02T13:18:42;99441.78;;;11.58;71.74
62779;BME280;48821;48.796;2.396;2024-03-02T13:19:58;99441.72;;;11.60;71.18
62779;BME280;48821;48.796;2.396;2024-03-02T13:21:09;99438.50;;;11.55;71.43
62779;BME280;48821;48.796;2.396;2024-03-02T13:22:20;99447.72;;;11.62;71.38
62779;BME280;48821;48.796;2.396;2024-03-02T13:23:34;99441.50;;;11.63;71.35
62779;BME280;48821;48.796;2.396;2024-03-02T13:24:48;99440.50;;;11.66;71.19
62779;BME280;48821;48.796;2.396;2024-03-02T13:26:01;99442.28;;;11.65;71.51
62779;BME280;48821;48.796;2.396;2024-03-02T13:27:14;99441.28;;;11.68;71.26
62779;BME280;48821;48.796;2.396;2024-03-02T13:28:28;99441.16;;;11.69;71.63
62779;BME280;48821;48.796;2.396;2024-03-02T13:29:42;99446.34;;;11.71;71.58
62779;BME280;48821;48.796;2.396;2024-03-02T13:30:55;99436.66;;;11.72;71.69